Time;durP1;ratioP1;P1;durP2;ratioP2;P2;SDS_P1;SDS_P2;PMS_P1;PMS_P2;Temp;Humidity;BMP_temperature;BMP_pressure;BME280_temperature;BME280_humidity;BME280_pressure;Samples;Min_cycle;Max_cycle;Signal;HPM_P1;HPM_P2
2022/07/23 00:01:15;;;;;;;6.70;1.90;;;14.20;99.90;;;;;;4748970;30;20044;-92
2022/07/23 00:03:41;;;;;;;3.80;1.45;;;14.20;99.90;;;;;;4750855;30;20091;-91
2022/07/23 00:06:07;;;;;;;4.57;1.50;;;14.30;99.90;;;;;;4750704;30;20112;-92
2022/07/23 00:08:32;;;;;;;6.63;1.58;;;14.20;99.90;;;;;;4750394;30;20465;-90
2022/07/23 00:10:58;;;;;;;7.80;2.00;;;14.20;99.90;;;;;;4751166;30;20052;-92
2022/07/23 00:13:24;;;;;;;3.90;1.80;;;14.20;99.90;;;;;;4750579;30;20040;-92
2022/07/23 00:15:50;;;;;;;7.13;1.67;;;14.20;99.90;;;;;;4750199;30;20558;-91
2022/07/23 00:18:15;;;;;;;12.50;2.53;;;14.20;99.90;;;;;;4736007;30;20108;-92
2022/07/23 00:20:42;;;;;;;15.13;2.20;;;14.20;99.90;;;;;;4722120;30;20102;-92
2022/07/23 00:23:08;;;;;;;4.47;1.50;;;14.30;99.90;;;;;;4736079;30;20083;-91
2022/07/23 00:25:33;;;;;;;10.70;1.98;;;14.50;99.90;;;;;;4750801;30;20480;-92
2022/07/23 00:28:00;;;;;;;6.20;2.00;;;14.40;99.90;;;;;;4736558;30;20048;-91
2022/07/23 00:30:29;;;;;;;7.60;2.10;;;14.40;99.90;;;;;;4735460;30;20062;-91
2022/07/23 00:32:58;;;;;;;8.40;2.28;;;14.40;99.90;;;;;;4736583;30;20047;-92
2022/07/23 00:35:25;;;;;;;6.40;2.38;;;14.40;99.90;;;;;;4734937;30;20135;-92
2022/07/23 00:37:51;;;;;;;6.38;2.22;;;14.40;99.90;;;;;;4736549;30;20094;-92
2022/07/23 00:40:17;;;;;;;5.03;2.10;;;14.40;99.90;;;;;;4735654;30;20083;-92
2022/07/23 00:42:43;;;;;;;6.63;2.30;;;14.40;99.90;;;;;;4735290;30;20059;-92
2022/07/23 00:45:09;;;;;;;8.30;2.50;;;14.40;99.90;;;;;;4735146;30;20051;-92
2022/07/23 00:47:35;;;;;;;9.23;2.80;;;14.40;99.90;;;;;;4735803;30;20047;-92
2022/07/23 00:50:02;;;;;;;10.75;2.38;;;14.30;99.90;;;;;;4735987;30;20059;-92
2022/07/23 00:52:29;;;;;;;6.72;2.08;;;14.20;99.90;;;;;;4735361;30;20063;-92
2022/07/23 00:54:55;;;;;;;7.30;2.30;;;14.20;99.90;;;;;;4736495;30;20055;-92
2022/07/23 00:57:21;;;;;;;8.43;2.30;;;14.20;99.90;;;;;;4734868;30;20051;-92
2022/07/23 00:59:46;;;;;;;10.82;2.40;;;14.10;99.90;;;;;;4750490;30;20051;-92
2022/07/23 01:02:12;;;;;;;7.28;2.13;;;14.10;99.90;;;;;;4735572;30;20050;-92
2022/07/23 01:04:38;;;;;;;5.13;2.20;;;14.00;99.90;;;;;;4735073;30;20094;-91
2022/07/23 01:07:04;;;;;;;8.75;2.30;;;13.90;99.90;;;;;;4750753;30;20044;-92
2022/07/23 01:09:31;;;;;;;8.73;2.95;;;13.90;99.90;;;;;;4759024;30;20083;-91
2022/07/23 01:11:58;;;;;;;7.93;2.60;;;13.80;99.90;;;;;;4735986;30;20083;-91
2022/07/23 01:14:24;;;;;;;7.60;2.53;;;13.80;99.90;;;;;;4739183;30;20059;-91
2022/07/23 01:16:50;;;;;;;8.18;2.60;;;13.80;99.90;;;;;;4738813;30;20058;-91
2022/07/23 01:19:17;;;;;;;8.10;2.60;;;13.80;99.90;;;;;;4738590;30;20508;-91
2022/07/23 01:21:46;;;;;;;6.28;2.78;;;13.90;99.90;;;;;;4753511;30;20130;-91
2022/07/23 01:24:12;;;;;;;6.90;2.80;;;13.90;99.90;;;;;;4738489;30;20122;-91
2022/07/23 01:26:40;;;;;;;6.85;2.55;;;13.80;99.90;;;;;;4738912;30;20489;-91
2022/07/23 01:29:06;;;;;;;8.70;2.53;;;13.80;99.90;;;;;;4739397;30;20044;-91
2022/07/23 01:31:32;;;;;;;7.85;2.25;;;13.90;99.90;;;;;;4738241;30;20051;-91
2022/07/23 01:33:58;;;;;;;5.53;2.30;;;13.90;99.90;;;;;;4738855;30;20062;-92
2022/07/23 01:36:23;;;;;;;6.82;2.60;;;13.90;99.90;;;;;;4738190;30;20165;-91
2022/07/23 01:38:49;;;;;;;6.78;2.30;;;13.90;99.90;;;;;;4737966;30;20139;-91
2022/07/23 01:41:15;;;;;;;5.32;2.33;;;13.90;99.90;;;;;;4738642;30;20197;-90
2022/07/23 01:43:41;;;;;;;6.95;2.45;;;13.90;99.90;;;;;;4738810;30;20047;-91
2022/07/23 01:46:06;;;;;;;7.00;2.10;;;13.90;99.90;;;;;;4737060;30;20412;-91
2022/07/23 01:48:32;;;;;;;5.78;2.42;;;13.80;99.90;;;;;;4738585;30;20159;-91
2022/07/23 01:50:58;;;;;;;7.05;2.05;;;13.80;99.90;;;;;;4738317;30;20052;-91
2022/07/23 01:53:24;;;;;;;9.20;2.42;;;13.80;99.90;;;;;;4737742;30;20063;-90
2022/07/23 01:55:49;;;;;;;7.03;2.30;;;13.70;99.90;;;;;;4745905;30;20048;-91
2022/07/23 01:58:15;;;;;;;5.05;1.85;;;13.70;99.90;;;;;;4737738;30;20109;-91
2022/07/23 02:00:41;;;;;;;9.13;2.78;;;13.80;99.90;;;;;;4737163;30;20408;-91
2022/07/23 02:03:06;;;;;;;5.60;2.78;;;13.80;99.90;;;;;;4738308;30;20126;-90
2022/07/23 02:05:32;;;;;;;7.22;2.50;;;13.90;99.90;;;;;;4737677;30;20067;-91
2022/07/23 02:07:59;;;;;;;6.50;2.38;;;13.70;99.90;;;;;;4737901;30;20107;-91
2022/07/23 02:10:25;;;;;;;9.32;2.38;;;13.70;99.90;;;;;;4752037;30;20047;-91
2022/07/23 02:12:51;;;;;;;7.65;2.35;;;13.90;99.90;;;;;;4753157;30;20047;-90
2022/07/23 02:15:17;;;;;;;5.75;2.42;;;13.70;99.90;;;;;;4736832;30;20451;-91
2022/07/23 02:17:43;;;;;;;8.23;2.60;;;13.80;99.90;;;;;;4738088;30;20047;-91
2022/07/23 02:20:09;;;;;;;8.98;2.85;;;13.70;99.90;;;;;;4737498;30;20146;-91
2022/07/23 02:22:35;;;;;;;5.43;2.70;;;13.80;99.90;;;;;;4752106;30;20134;-91
2022/07/23 02:25:03;;;;;;;9.25;3.05;;;13.70;99.90;;;;;;4752241;30;20059;-90
2022/07/23 02:27:28;;;;;;;9.57;3.25;;;13.80;99.90;;;;;;4751712;30;20056;-91
2022/07/23 02:29:54;;;;;;;5.70;2.55;;;13.80;99.90;;;;;;4738142;30;20138;-91
2022/07/23 02:32:21;;;;;;;5.38;3.00;;;13.80;99.90;;;;;;4737439;30;20040;-90
2022/07/23 02:34:47;;;;;;;7.82;3.25;;;13.80;99.90;;;;;;4736890;30;20105;-91
2022/07/23 02:37:14;;;;;;;5.00;2.40;;;13.90;99.90;;;;;;4752396;30;20120;-91
2022/07/23 02:39:40;;;;;;;9.70;2.92;;;13.90;99.90;;;;;;4751859;30;20525;-91
2022/07/23 02:42:05;;;;;;;6.00;2.40;;;13.90;99.90;;;;;;4751707;30;20492;-90
2022/07/23 02:44:31;;;;;;;7.03;2.60;;;13.90;99.90;;;;;;4737781;30;20122;-91
2022/07/23 02:46:57;;;;;;;4.95;2.85;;;13.90;99.90;;;;;;4737220;30;20143;-91
2022/07/23 02:49:23;;;;;;;10.05;3.13;;;14.00;99.90;;;;;;4751189;30;20189;-91
2022/07/23 02:51:48;;;;;;;8.88;3.10;;;14.00;99.90;;;;;;4752108;30;20055;-91
2022/07/23 02:54:15;;;;;;;9.45;3.05;;;14.10;99.90;;;;;;4752054;30;20497;-90
2022/07/23 02:56:40;;;;;;;8.32;3.08;;;14.10;99.90;;;;;;4736586;30;20411;-90
2022/07/23 02:59:06;;;;;;;12.30;3.47;;;14.10;99.90;;;;;;4751715;30;20044;-90
2022/07/23 03:01:32;;;;;;;7.15;3.10;;;14.10;99.90;;;;;;4751520;30;20048;-91
2022/07/23 03:03:57;;;;;;;5.93;3.17;;;14.10;99.90;;;;;;4736622;30;20136;-90
2022/07/23 03:06:23;;;;;;;8.13;3.40;;;14.20;99.90;;;;;;4751281;30;20051;-92
2022/07/23 03:08:49;;;;;;;10.55;4.00;;;14.20;99.90;;;;;;4752086;30;20059;-91
2022/07/23 03:11:15;;;;;;;11.60;4.50;;;14.20;99.90;;;;;;4751183;30;20048;-91
2022/07/23 03:13:41;;;;;;;12.63;3.83;;;14.20;99.90;;;;;;4751975;30;20059;-91
2022/07/23 03:16:07;;;;;;;8.30;3.75;;;14.30;99.90;;;;;;4750814;30;20052;-91
2022/07/23 03:18:33;;;;;;;7.03;3.55;;;14.30;99.90;;;;;;4736263;30;20056;-90
2022/07/23 03:20:59;;;;;;;7.93;3.83;;;14.30;99.90;;;;;;4751575;30;20127;-90
2022/07/23 03:23:25;;;;;;;8.77;3.70;;;14.40;99.90;;;;;;4736607;30;20437;-90
2022/07/23 03:25:52;;;;;;;8.68;3.40;;;14.40;99.90;;;;;;4751176;30;20066;-91
2022/07/23 03:28:19;;;;;;;10.60;3.90;;;14.40;99.90;;;;;;4736456;30;20058;-91
2022/07/23 03:30:46;;;;;;;6.43;3.92;;;14.40;99.90;;;;;;4735958;30;20058;-90
2022/07/23 03:33:14;;;;;;;9.82;3.28;;;14.40;99.90;;;;;;4737713;30;20123;-91
2022/07/23 03:35:40;;;;;;;12.13;3.42;;;14.40;99.90;;;;;;4768156;30;20047;-91
2022/07/23 03:38:06;;;;;;;8.30;3.28;;;14.40;99.90;;;;;;4768769;30;20062;-91
2022/07/23 03:40:31;;;;;;;14.30;3.10;;;14.40;99.90;;;;;;4768459;30;20051;-90
2022/07/23 03:42:57;;;;;;;8.73;2.88;;;14.30;99.90;;;;;;4769570;30;20117;-90
2022/07/23 03:45:23;;;;;;;8.52;2.95;;;14.40;99.90;;;;;;4767501;30;20055;-90
2022/07/23 03:47:48;;;;;;;11.57;2.78;;;14.30;99.90;;;;;;4769776;30;20047;-90
2022/07/23 03:50:14;;;;;;;10.98;3.42;;;14.40;99.90;;;;;;4768998;30;20440;-90
2022/07/23 03:52:40;;;;;;;7.93;2.50;;;14.40;99.90;;;;;;4768007;30;20063;-89
2022/07/23 03:55:06;;;;;;;12.70;2.78;;;14.40;99.90;;;;;;4768706;30;20393;-90
2022/07/23 03:57:32;;;;;;;12.27;2.70;;;14.50;99.90;;;;;;4768434;30;20441;-89
2022/07/23 03:59:58;;;;;;;9.93;2.72;;;14.50;99.90;;;;;;4767963;30;20066;-90
2022/07/23 04:02:24;;;;;;;11.75;3.50;;;14.50;99.90;;;;;;4768693;30;20043;-90
2022/07/23 04:04:50;;;;;;;4.50;2.60;;;14.50;99.90;;;;;;4768904;30;20043;-90
2022/07/23 04:07:17;;;;;;;6.72;3.03;;;14.50;99.90;;;;;;4768428;30;20062;-91
2022/07/23 04:09:43;;;;;;;10.43;3.50;;;14.50;99.90;;;;;;4768593;30;20051;-90
2022/07/23 04:12:10;;;;;;;6.15;3.00;;;14.50;99.90;;;;;;4768761;30;20233;-90
2022/07/23 04:14:35;;;;;;;9.05;3.00;;;14.60;99.90;;;;;;4768417;30;20055;-90
2022/07/23 04:17:02;;;;;;;8.98;2.97;;;14.60;99.90;;;;;;4768364;30;20094;-90
2022/07/23 04:19:28;;;;;;;6.40;2.60;;;14.60;99.90;;;;;;4768623;30;20055;-90
2022/07/23 04:21:53;;;;;;;11.32;2.90;;;14.60;99.90;;;;;;4767962;30;20054;-90
2022/07/23 04:24:19;;;;;;;8.30;2.65;;;14.60;99.90;;;;;;4775718;29;20051;-90
2022/07/23 04:26:45;;;;;;;7.78;2.78;;;14.70;99.90;;;;;;4759560;30;20113;-90
2022/07/23 04:29:11;;;;;;;7.80;2.33;;;14.70;99.90;;;;;;4749900;30;20048;-88
2022/07/23 04:31:37;;;;;;;12.23;2.88;;;14.70;99.90;;;;;;4749975;30;20055;-90
2022/07/23 04:34:05;;;;;;;6.47;2.17;;;14.80;99.90;;;;;;4763650;30;20114;-90
2022/07/23 04:36:31;;;;;;;9.40;2.30;;;14.80;99.90;;;;;;4768148;30;20476;-90
2022/07/23 04:38:57;;;;;;;6.00;1.80;;;14.90;99.90;;;;;;4768077;30;20055;-90
2022/07/23 04:41:23;;;;;;;11.52;2.22;;;14.90;99.90;;;;;;4767312;30;20051;-90
2022/07/23 04:43:48;;;;;;;5.82;1.80;;;15.00;99.90;;;;;;4768308;30;20416;-89
2022/07/23 04:46:14;;;;;;;6.35;1.77;;;15.00;99.90;;;;;;4767250;30;20104;-89
2022/07/23 04:48:42;;;;;;;8.32;1.88;;;15.10;99.90;;;;;;4771261;30;20082;-90
2022/07/23 04:51:08;;;;;;;9.63;1.90;;;15.10;99.90;;;;;;4771271;30;20059;-89
2022/07/23 04:53:33;;;;;;;8.10;2.10;;;15.20;99.90;;;;;;4756618;30;20059;-91
2022/07/23 04:55:59;;;;;;;5.65;2.05;;;15.30;99.90;;;;;;4770994;30;20047;-90
2022/07/23 04:58:25;;;;;;;5.68;2.30;;;15.30;99.90;;;;;;4771076;30;20572;-90
2022/07/23 05:00:50;;;;;;;5.00;2.25;;;15.30;99.90;;;;;;4771282;30;20564;-90
2022/07/23 05:03:17;;;;;;;6.97;2.45;;;15.30;99.90;;;;;;4771004;30;20047;-89
2022/07/23 05:05:43;;;;;;;7.70;2.00;;;15.40;99.90;;;;;;4771507;30;20495;-90
2022/07/23 05:08:08;;;;;;;7.32;2.33;;;15.40;99.90;;;;;;4771282;30;20526;-89
2022/07/23 05:10:34;;;;;;;6.95;2.40;;;15.40;99.90;;;;;;4770237;30;20108;-89
2022/07/23 05:13:00;;;;;;;9.68;2.75;;;15.30;99.90;;;;;;4771646;30;20069;-90
2022/07/23 05:15:26;;;;;;;11.10;2.42;;;15.30;99.90;;;;;;4770500;30;20051;-90
2022/07/23 05:17:51;;;;;;;9.18;3.53;;;15.30;99.90;;;;;;4770663;30;20055;-88
2022/07/23 05:20:17;;;;;;;6.38;2.20;;;15.30;99.90;;;;;;4770838;30;20112;-90
2022/07/23 05:22:46;;;;;;;6.80;2.20;;;15.40;99.90;;;;;;4770768;30;20134;-89
2022/07/23 05:25:11;;;;;;;12.88;2.25;;;15.10;99.90;;;;;;4770481;30;20104;-89
2022/07/23 05:27:37;;;;;;;4.45;2.10;;;15.50;99.90;;;;;;4771002;30;20047;-90
2022/07/23 05:30:03;;;;;;;6.15;2.00;;;15.50;99.90;;;;;;4770531;30;20051;-90
2022/07/23 05:32:31;;;;;;;5.80;2.35;;;15.60;99.90;;;;;;4769970;30;20058;-90
2022/07/23 05:34:57;;;;;;;12.18;2.50;;;15.60;99.90;;;;;;4771077;30;20058;-90
2022/07/23 05:37:23;;;;;;;8.70;2.22;;;15.60;99.90;;;;;;4770375;30;20138;-90
2022/07/23 05:39:48;;;;;;;7.88;2.10;;;15.70;99.90;;;;;;4770794;30;20509;-90
2022/07/23 05:42:14;;;;;;;4.88;1.90;;;15.80;99.90;;;;;;4770903;30;20058;-90
2022/07/23 05:44:40;;;;;;;8.05;2.30;;;15.80;99.90;;;;;;4769732;30;20067;-91
2022/07/23 05:47:05;;;;;;;6.88;2.50;;;15.80;99.90;;;;;;4770126;30;20043;-89
2022/07/23 05:49:31;;;;;;;5.32;3.17;;;15.80;99.90;;;;;;4767008;30;20063;-89
2022/07/23 05:51:57;;;;;;;7.97;2.20;;;15.80;99.90;;;;;;4761373;30;20163;-90
2022/07/23 05:54:23;;;;;;;6.85;2.10;;;15.80;99.90;;;;;;4739837;30;20063;-89
2022/07/23 05:56:50;;;;;;;8.85;3.00;;;15.90;99.90;;;;;;4753201;30;20048;-90
2022/07/23 05:59:15;;;;;;;5.25;2.28;;;16.00;99.90;;;;;;4752142;30;20056;-89
2022/07/23 06:01:41;;;;;;;6.00;1.90;;;16.10;99.90;;;;;;4752943;30;20110;-89
2022/07/23 06:04:07;;;;;;;5.47;2.10;;;16.20;99.90;;;;;;4752921;30;20058;-90
2022/07/23 06:06:33;;;;;;;5.32;1.58;;;16.20;99.90;;;;;;4752765;30;20059;-89
2022/07/23 06:08:59;;;;;;;8.07;1.95;;;16.30;99.90;;;;;;4753311;30;20048;-90
2022/07/23 06:11:24;;;;;;;5.57;1.65;;;16.30;99.90;;;;;;4753175;30;20091;-89
2022/07/23 06:13:50;;;;;;;5.82;1.55;;;16.30;99.90;;;;;;4753113;30;20056;-89
2022/07/23 06:16:16;;;;;;;7.22;1.83;;;16.40;99.90;;;;;;4782988;30;20420;-90
2022/07/23 06:18:41;;;;;;;4.50;1.40;;;16.40;99.90;;;;;;4756564;30;20047;-90
2022/07/23 06:21:07;;;;;;;4.65;1.50;;;16.40;99.90;;;;;;4755900;30;20559;-90
2022/07/23 06:23:33;;;;;;;5.35;1.60;;;16.30;99.90;;;;;;4756403;30;20109;-89
2022/07/23 06:25:58;;;;;;;8.45;2.03;;;16.30;99.90;;;;;;4771324;30;20066;-90
2022/07/23 06:28:25;;;;;;;6.90;1.50;;;16.30;99.90;;;;;;4770723;30;20134;-90
2022/07/23 06:30:50;;;;;;;6.90;1.58;;;16.30;99.90;;;;;;4770855;30;20054;-90
2022/07/23 06:33:16;;;;;;;3.90;1.25;;;16.20;99.90;;;;;;4770378;30;20365;-90
2022/07/23 06:35:42;;;;;;;5.40;1.20;;;16.30;99.90;;;;;;4770480;30;20104;-90
2022/07/23 06:38:07;;;;;;;5.55;1.17;;;16.30;99.90;;;;;;4770661;30;20112;-90
2022/07/23 06:40:33;;;;;;;5.57;1.38;;;16.60;99.90;;;;;;4770186;30;20186;-89
2022/07/23 06:42:59;;;;;;;2.55;0.77;;;16.40;99.90;;;;;;4770921;30;20096;-90
2022/07/23 06:45:25;;;;;;;7.63;0.90;;;16.50;99.90;;;;;;4769840;30;20462;-89
2022/07/23 06:47:50;;;;;;;3.75;1.00;;;16.60;99.90;;;;;;4770703;30;20051;-89
2022/07/23 06:50:16;;;;;;;4.25;0.90;;;16.70;99.90;;;;;;4770514;30;20126;-90
2022/07/23 06:52:42;;;;;;;3.92;1.10;;;16.90;99.90;;;;;;4770090;30;20497;-90
2022/07/23 06:55:08;;;;;;;2.08;0.77;;;17.00;99.90;;;;;;4770044;30;20063;-89
2022/07/23 06:57:33;;;;;;;3.88;0.77;;;17.10;99.90;;;;;;4770665;30;20130;-90
2022/07/23 06:59:59;;;;;;;6.55;0.63;;;17.10;99.90;;;;;;4771260;30;20055;-90
2022/07/23 07:02:25;;;;;;;4.13;0.80;;;17.20;99.90;;;;;;4767532;29;20696;-87
2022/07/23 07:04:50;;;;;;;5.47;0.80;;;17.30;99.90;;;;;;4751252;30;20067;-87
2022/07/23 07:07:16;;;;;;;3.95;0.60;;;17.50;99.90;;;;;;4736938;30;20047;-87
2022/07/23 07:09:42;;;;;;;4.32;0.65;;;17.60;99.90;;;;;;4736214;30;20465;-87
2022/07/23 07:12:08;;;;;;;2.92;0.50;;;17.60;99.90;;;;;;4736321;30;20048;-86
2022/07/23 07:14:34;;;;;;;4.95;0.70;;;17.60;99.90;;;;;;4736775;30;20063;-87
2022/07/23 07:16:59;;;;;;;4.28;0.80;;;17.60;99.90;;;;;;4736288;30;20051;-87
2022/07/23 07:19:25;;;;;;;5.78;1.00;;;17.60;99.90;;;;;;4736300;30;20098;-87
2022/07/23 07:21:51;;;;;;;9.05;2.45;;;17.60;99.90;;;;;;4737166;30;20043;-88
2022/07/23 07:24:16;;;;;;;3.45;0.90;;;17.80;99.90;;;;;;4736872;30;20055;-88
2022/07/23 07:26:42;;;;;;;6.32;0.80;;;17.90;99.90;;;;;;4736821;30;20047;-87
2022/07/23 07:29:08;;;;;;;10.75;2.15;;;18.00;99.90;;;;;;4736341;30;20109;-87
2022/07/23 07:31:33;;;;;;;4.78;0.73;;;18.00;99.90;;;;;;4735870;30;20044;-87
2022/07/23 07:33:59;;;;;;;6.55;0.60;;;18.10;99.90;;;;;;4736886;30;20060;-86
2022/07/23 07:36:25;;;;;;;10.80;0.88;;;18.20;99.90;;;;;;4736415;30;20556;-88
2022/07/23 07:38:51;;;;;;;7.13;0.57;;;18.30;99.90;;;;;;4736785;30;20067;-88
2022/07/23 07:41:16;;;;;;;1.45;0.30;;;18.40;99.90;;;;;;4736167;30;20047;-87
2022/07/23 07:43:42;;;;;;;4.07;0.40;;;18.50;99.90;;;;;;4736428;30;20085;-88
2022/07/23 07:46:09;;;;;;;1.30;0.22;;;18.60;99.90;;;;;;4735844;30;20043;-88
2022/07/23 07:48:36;;;;;;;4.50;0.35;;;18.80;99.90;;;;;;4750927;30;20083;-88
2022/07/23 07:51:04;;;;;;;2.20;0.10;;;19.00;99.90;;;;;;4768498;30;20055;-88
2022/07/23 07:53:30;;;;;;;1.33;0.22;;;19.20;99.90;;;;;;4765144;30;20067;-88
2022/07/23 07:55:55;;;;;;;5.20;0.40;;;19.20;99.90;;;;;;4750180;30;20052;-87
2022/07/23 07:58:21;;;;;;;1.25;0.30;;;19.20;99.90;;;;;;4749252;30;20130;-88
2022/07/23 08:00:47;;;;;;;1.73;0.35;;;19.00;99.90;;;;;;4750600;30;20051;-88
2022/07/23 08:03:13;;;;;;;2.05;0.40;;;18.90;99.90;;;;;;4758973;30;20058;-88
2022/07/23 08:05:38;;;;;;;1.25;0.20;;;18.80;99.90;;;;;;4748539;30;20052;-89
2022/07/23 08:08:04;;;;;;;2.17;0.30;;;18.70;99.90;;;;;;4737012;30;20094;-88
2022/07/23 08:10:31;;;;;;;1.63;0.20;;;18.60;99.90;;;;;;4735905;30;20072;-88
2022/07/23 08:12:58;;;;;;;3.10;0.38;;;18.50;99.90;;;;;;4735729;30;20051;-88
2022/07/23 08:15:26;;;;;;;2.97;0.30;;;18.50;99.90;;;;;;4753165;30;20051;-88
2022/07/23 08:17:51;;;;;;;1.10;0.30;;;18.60;99.90;;;;;;4769246;30;20062;-89
2022/07/23 08:20:19;;;;;;;4.15;0.50;;;18.80;99.90;;;;;;4768239;30;20055;-88
2022/07/23 08:22:55;;;;;;;1.58;0.20;;;19.20;99.90;;;;;;4767960;30;20039;-88
2022/07/23 08:25:25;;;;;;;4.18;0.30;;;19.60;99.90;;;;;;4768241;30;20051;-90
2022/07/23 08:27:54;;;;;;;1.98;0.28;;;20.00;99.90;;;;;;4764009;30;20059;-90
2022/07/23 08:30:21;;;;;;;4.10;0.38;;;20.00;99.90;;;;;;4743214;30;20055;-89
2022/07/23 08:32:49;;;;;;;1.77;0.30;;;20.00;99.90;;;;;;4740110;30;20079;-90
2022/07/23 08:35:16;;;;;;;1.60;0.35;;;19.70;99.90;;;;;;4766091;30;20056;-89
2022/07/23 08:37:42;;;;;;;1.88;0.32;;;19.50;99.90;;;;;;4736869;30;20059;-88
2022/07/23 08:40:08;;;;;;;1.13;0.30;;;19.40;99.90;;;;;;4737016;30;20151;-89
2022/07/23 08:42:35;;;;;;;4.15;0.50;;;19.20;99.90;;;;;;4733600;30;20048;-89
2022/07/23 08:45:02;;;;;;;2.72;0.35;;;19.20;99.90;;;;;;4733837;30;20048;-91
2022/07/23 08:47:29;;;;;;;1.83;0.40;;;19.60;99.90;;;;;;4735671;30;20835;-89
2022/07/23 08:49:56;;;;;;;3.05;0.32;;;19.90;99.90;;;;;;4737047;30;20050;-90
2022/07/23 08:52:23;;;;;;;5.00;0.30;;;20.10;99.90;;;;;;4735994;30;20095;-89
2022/07/23 08:54:49;;;;;;;2.00;0.32;;;20.20;99.90;;;;;;4747354;30;20048;-89
2022/07/23 08:57:15;;;;;;;3.13;0.30;;;20.00;99.90;;;;;;4750702;30;20062;-88
2022/07/23 08:59:41;;;;;;;2.20;0.40;;;20.00;99.90;;;;;;4756672;30;20059;-89
2022/07/23 09:02:07;;;;;;;3.08;0.55;;;19.90;99.90;;;;;;4768212;30;20057;-93
2022/07/23 09:04:33;;;;;;;2.83;0.43;;;19.70;99.90;;;;;;4768680;30;20134;-87
2022/07/23 09:06:59;;;;;;;2.88;0.50;;;19.70;99.90;;;;;;4768501;30;20090;-89
2022/07/23 09:09:29;;;;;;;1.55;0.43;;;19.90;99.90;;;;;;4768431;30;20542;-92
2022/07/23 09:12:03;;;;;;;7.30;0.40;;;20.10;99.90;;;;;;4768899;30;20040;-89
2022/07/23 09:14:38;;;;;;;3.03;0.40;;;20.40;99.90;;;;;;4768901;30;20051;-90
2022/07/23 09:17:12;;;;;;;3.00;0.63;;;20.50;99.90;;;;;;4767806;30;20047;-87
2022/07/23 09:19:39;;;;;;;1.90;0.40;;;20.50;99.90;;;;;;4768770;30;20120;-90
2022/07/23 09:22:27;;;;;;;3.80;0.43;;;20.60;99.90;;;;;;4768102;30;20047;-88
2022/07/23 09:25:10;;;;;;;2.83;0.40;;;20.80;99.90;;;;;;4768394;30;20051;-88
2022/07/23 09:27:53;;;;;;;2.05;0.40;;;20.80;99.90;;;;;;4767864;30;20051;-87
2022/07/23 09:30:21;;;;;;;1.67;0.30;;;20.70;99.90;;;;;;4766585;30;20055;-87
2022/07/23 09:33:07;;;;;;;1.05;0.30;;;20.70;99.90;;;;;;4768565;30;20055;-86
2022/07/23 09:35:46;;;;;;;7.38;0.65;;;20.60;99.90;;;;;;4771495;30;20456;-87
2022/07/23 09:38:13;;;;;;;0.90;0.25;;;20.50;99.90;;;;;;4770519;30;20389;-87
2022/07/23 09:40:39;;;;;;;4.18;1.00;;;20.50;99.90;;;;;;4770175;30;20148;-87
2022/07/23 09:43:04;;;;;;;4.68;0.60;;;20.50;99.90;;;;;;4765956;30;20204;-88
2022/07/23 09:45:30;;;;;;;1.23;0.30;;;20.50;99.90;;;;;;4751900;30;20237;-87
2022/07/23 09:48:16;;;;;;;4.03;0.38;;;20.60;99.90;;;;;;4753376;30;20054;-87
2022/07/23 09:50:43;;;;;;;2.85;0.35;;;20.60;99.90;;;;;;4738593;30;20051;-88
2022/07/23 09:53:23;;;;;;;3.60;0.52;;;20.60;99.90;;;;;;4738477;30;20055;-89
2022/07/23 09:55:51;;;;;;;3.35;0.45;;;20.80;99.90;;;;;;4758981;30;20058;-85
2022/07/23 09:58:21;;;;;;;1.17;0.30;;;20.80;99.90;;;;;;4764353;30;20555;-89
2022/07/23 10:00:49;;;;;;;9.05;1.02;;;20.90;99.90;;;;;;4754948;30;20043;-87
2022/07/23 10:03:15;;;;;;;6.22;0.75;;;20.90;99.90;;;;;;4769659;30;20130;-87
2022/07/23 10:05:43;;;;;;;3.00;0.40;;;21.00;99.90;;;;;;4754414;30;20051;-87
2022/07/23 10:08:11;;;;;;;2.55;0.50;;;21.10;99.90;;;;;;4754770;30;20054;-86
2022/07/23 10:10:39;;;;;;;3.55;0.45;;;21.20;99.90;;;;;;4747068;30;20059;-87
2022/07/23 10:15:52;;;;;;;2.08;0.40;;;21.00;99.90;;;;;;4755825;30;20052;-86
2022/07/23 10:18:17;;;;;;;1.98;0.30;;;20.90;99.90;;;;;;4750994;30;20150;-86
2022/07/23 10:20:47;;;;;;;3.47;0.40;;;20.90;99.90;;;;;;4757933;30;20409;-85
2022/07/23 10:23:34;;;;;;;3.80;0.75;;;21.00;99.90;;;;;;4745526;30;20082;-86
2022/07/23 10:26:42;;;;;;;5.60;0.40;;;21.10;99.90;;;;;;4750312;30;20094;-86
2022/07/23 10:29:31;;;;;;;27.92;2.40;;;21.00;99.90;;;;;;4758590;30;20052;-86
2022/07/23 10:32:17;;;;;;;3.50;0.55;;;21.00;99.90;;;;;;4752456;30;20409;-86
2022/07/23 10:35:06;;;;;;;4.80;0.50;;;21.00;99.90;;;;;;4768768;30;20051;-87
2022/07/23 10:37:38;;;;;;;6.10;0.50;;;21.00;99.90;;;;;;4768687;30;20062;-86
2022/07/23 10:40:14;;;;;;;4.40;0.50;;;21.10;99.90;;;;;;4768179;30;20138;-86
2022/07/23 10:42:41;;;;;;;5.40;0.50;;;21.10;99.90;;;;;;4768682;30;20473;-87
2022/07/23 10:45:26;;;;;;;5.20;0.55;;;21.20;99.90;;;;;;4767926;30;20520;-86
2022/07/23 10:47:53;;;;;;;7.53;0.77;;;21.30;99.90;;;;;;4757059;30;20078;-87
2022/07/23 10:50:21;;;;;;;5.07;0.77;;;21.30;99.90;;;;;;4774553;30;20094;-86
2022/07/23 10:53:06;;;;;;;1.88;0.52;;;21.40;99.90;;;;;;4769110;30;20076;-84
2022/07/23 10:55:31;;;;;;;5.20;0.50;;;21.40;99.90;;;;;;4767929;30;20066;-86
2022/07/23 10:57:58;;;;;;;1.92;0.70;;;21.50;99.90;;;;;;4769338;30;20448;-86
2022/07/23 11:00:25;;;;;;;5.47;0.50;;;21.60;99.90;;;;;;4767754;30;20047;-87
2022/07/23 11:02:53;;;;;;;5.45;0.65;;;21.70;99.90;;;;;;4768672;30;20136;-86
2022/07/23 11:05:21;;;;;;;1.98;0.52;;;21.80;99.90;;;;;;4768100;30;20543;-86
2022/07/23 11:08:04;;;;;;;5.63;0.70;;;21.80;99.90;;;;;;4769143;30;20594;-84
2022/07/23 11:10:43;;;;;;;6.93;0.50;;;21.70;99.90;;;;;;4768349;30;20055;-87
2022/07/23 11:13:21;;;;;;;3.80;0.50;;;21.80;99.90;;;;;;4769417;30;20134;-86
2022/07/23 11:16:00;;;;;;;3.55;0.60;;;21.70;99.90;;;;;;4768197;30;20051;-87
2022/07/23 11:18:39;;;;;;;2.05;0.65;;;21.60;99.90;;;;;;4768524;30;20058;-87
2022/07/23 11:21:28;;;;;;;6.03;0.80;;;21.50;99.90;;;;;;4768454;30;20052;-87
2022/07/23 11:23:58;;;;;;;5.32;0.70;;;21.40;99.90;;;;;;4736592;30;20056;-86
2022/07/23 11:26:39;;;;;;;2.67;0.60;;;21.20;99.90;;;;;;4750653;30;20409;-87
2022/07/23 11:29:25;;;;;;;4.35;0.70;;;21.20;99.90;;;;;;4751160;30;20101;-86
2022/07/23 11:31:53;;;;;;;5.10;0.82;;;21.20;99.90;;;;;;4750272;30;20358;-87
2022/07/23 11:34:31;;;;;;;4.57;0.70;;;21.10;99.90;;;;;;4750296;30;20051;-87
2022/07/23 11:36:57;;;;;;;2.60;0.60;;;21.10;99.90;;;;;;4750603;30;20055;-88
2022/07/23 11:39:25;;;;;;;3.85;0.55;;;21.00;99.90;;;;;;4750495;30;20505;-87
2022/07/23 11:41:52;;;;;;;2.85;0.60;;;20.90;99.90;;;;;;4750828;30;20116;-86
2022/07/23 11:44:26;;;;;;;4.07;0.70;;;20.80;99.90;;;;;;4750088;30;20052;-86
2022/07/23 11:47:05;;;;;;;2.08;0.50;;;20.80;99.90;;;;;;4750705;30;20055;-87
2022/07/23 11:49:30;;;;;;;4.32;0.60;;;20.60;99.90;;;;;;4737194;30;20051;-91
2022/07/23 11:52:08;;;;;;;3.40;0.90;;;20.50;99.90;;;;;;4751704;30;20429;-88
2022/07/23 11:54:36;;;;;;;2.53;0.60;;;20.60;99.90;;;;;;4751764;30;20055;-90
2022/07/23 11:57:03;;;;;;;2.15;0.68;;;20.60;99.90;;;;;;4750161;30;20048;-90
2022/07/23 11:59:32;;;;;;;4.53;0.77;;;20.70;99.90;;;;;;4751343;30;20783;-89
2022/07/23 12:01:59;;;;;;;4.75;0.85;;;20.80;99.90;;;;;;4751010;30;20563;-89
2022/07/23 12:04:40;;;;;;;3.38;0.80;;;20.90;99.90;;;;;;4751888;30;20056;-90
2022/07/23 12:07:22;;;;;;;4.78;0.90;;;21.10;99.90;;;;;;4752917;30;20117;-89
2022/07/23 12:09:48;;;;;;;4.18;0.70;;;21.30;99.90;;;;;;4751722;30;20044;-88
2022/07/23 12:12:14;;;;;;;2.67;0.75;;;21.40;99.90;;;;;;4750678;30;20450;-88
2022/07/23 12:14:48;;;;;;;4.35;0.80;;;21.60;99.90;;;;;;4751270;30;20179;-87
2022/07/23 12:17:14;;;;;;;3.97;0.80;;;21.70;99.90;;;;;;4764291;30;20142;-86
2022/07/23 12:19:39;;;;;;;10.77;0.90;;;21.80;99.90;;;;;;4750191;30;20142;-87
2022/07/23 12:22:05;;;;;;;4.47;0.90;;;21.80;99.90;;;;;;4750683;30;20115;-87
2022/07/23 12:24:51;;;;;;;5.80;1.15;;;21.90;99.90;;;;;;4735717;30;20043;-88
2022/07/23 12:27:21;;;;;;;2.15;0.57;;;21.90;99.90;;;;;;4735320;30;20055;-87
2022/07/23 12:29:46;;;;;;;3.80;0.63;;;21.90;99.90;;;;;;4765276;30;20044;-87
2022/07/23 12:32:19;;;;;;;56.80;3.45;;;22.00;99.90;;;;;;4749705;30;20048;-86
2022/07/23 12:34:45;;;;;;;;;;;22.00;99.90;;;;;;4736383;30;20055;-87
2022/07/23 12:37:29;;;;;;;46.95;2.97;;;22.00;99.90;;;;;;4764686;30;19936;-87
2022/07/23 12:39:55;;;;;;;41.90;2.17;;;22.00;99.90;;;;;;4735814;30;20056;-88
2022/07/23 12:42:21;;;;;;;7.55;1.00;;;21.90;99.90;;;;;;4749936;30;20058;-86
2022/07/23 12:45:08;;;;;;;23.80;1.75;;;21.80;99.90;;;;;;4735409;30;20109;-87
2022/07/23 12:47:53;;;;;;;5.68;0.60;;;21.90;99.90;;;;;;4735107;30;20097;-87
2022/07/23 12:50:41;;;;;;;4.97;0.95;;;22.00;99.90;;;;;;4764683;30;20055;-87
2022/07/23 12:53:10;;;;;;;10.13;1.08;;;22.30;99.90;;;;;;4735410;30;20071;-87